Time;durP1;ratioP1;P1;durP2;ratioP2;P2;SDS_P1;SDS_P2;PMS_P1;PMS_P2;Temp;Humidity;BMP_temperature;BMP_pressure;BME280_temperature;BME280_humidity;BME280_pressure;Samples;Min_cycle;Max_cycle;Signal;HPM_P1;HPM_P2
2022/12/22 03:26:09;;;;;;;159.13;49.08;;;8.60;99.90;;;;;;4950788;28;20043;-74
2022/12/22 03:28:55;;;;;;;163.05;48.15;;;8.70;99.90;;;;;;4948772;28;20053;-75
2022/12/22 03:31:41;;;;;;;173.38;48.08;;;8.60;99.90;;;;;;4955711;28;20050;-74
2022/12/22 03:34:27;;;;;;;149.68;47.58;;;8.60;99.90;;;;;;4963394;28;20061;-73
2022/12/22 03:37:13;;;;;;;237.55;52.67;;;8.60;99.90;;;;;;4956175;28;20046;-75
2022/12/22 03:39:59;;;;;;;152.63;50.80;;;8.60;99.90;;;;;;4943679;28;20054;-74
2022/12/22 03:49:08;;;;;;;175.80;50.05;;;8.60;99.90;;;;;;4955134;28;20038;-74
2022/12/22 03:51:54;;;;;;;155.80;48.40;;;8.70;99.90;;;;;;4948606;28;20133;-73
2022/12/22 03:54:40;;;;;;;201.95;52.45;;;8.70;99.90;;;;;;4955081;28;20050;-74
2022/12/22 03:57:26;;;;;;;233.05;52.97;;;8.70;99.90;;;;;;4951245;28;20137;-75
2022/12/22 04:00:12;;;;;;;193.57;51.28;;;8.70;99.90;;;;;;4952731;28;20101;-75
2022/12/22 04:02:58;;;;;;;181.88;50.45;;;8.70;99.90;;;;;;4954027;28;20134;-74
2022/12/22 04:05:44;;;;;;;161.18;48.45;;;8.70;99.90;;;;;;4948118;28;20062;-75
2022/12/22 04:08:30;;;;;;;150.20;46.95;;;8.70;99.90;;;;;;4949611;28;20497;-75
2022/12/22 04:14:21;;;;;;;173.25;48.22;;;8.70;99.90;;;;;;4954110;28;20539;-75
2022/12/22 04:17:08;;;;;;;152.27;47.05;;;8.70;99.90;;;;;;4953813;28;20042;-76
2022/12/22 04:19:54;;;;;;;112.55;42.88;;;8.70;99.90;;;;;;4966976;28;20174;-75
2022/12/22 04:22:40;;;;;;;131.63;45.42;;;8.80;99.90;;;;;;4954695;28;20401;-75
2022/12/22 04:25:27;;;;;;;131.82;45.25;;;8.80;99.90;;;;;;4948526;28;20046;-75
2022/12/22 04:28:12;;;;;;;147.98;46.25;;;8.80;99.90;;;;;;4952600;28;20150;-75
2022/12/22 04:30:58;;;;;;;136.23;44.92;;;8.80;99.90;;;;;;4970941;28;20046;-75
2022/12/22 04:33:45;;;;;;;123.50;43.80;;;8.80;99.90;;;;;;4939595;28;20528;-75
2022/12/22 04:36:31;;;;;;;117.65;43.33;;;8.80;99.90;;;;;;4965491;28;20501;-74
2022/12/22 04:39:16;;;;;;;142.38;44.97;;;8.80;99.90;;;;;;4948383;28;20141;-75
2022/12/22 04:42:02;;;;;;;116.22;42.42;;;8.80;99.90;;;;;;4957125;28;20058;-75
2022/12/22 04:44:49;;;;;;;108.85;41.35;;;8.80;99.90;;;;;;4975380;28;20058;-73
2022/12/22 04:47:35;;;;;;;122.00;41.75;;;8.80;99.90;;;;;;4961360;28;20077;-75
2022/12/22 04:50:20;;;;;;;120.00;42.30;;;8.90;99.90;;;;;;4949348;28;20051;-75
2022/12/22 04:53:06;;;;;;;134.40;42.75;;;8.80;99.90;;;;;;4954159;28;20502;-75
2022/12/22 04:55:59;;;;;;;140.18;43.47;;;8.80;99.90;;;;;;4953832;28;20038;-75
2022/12/22 04:58:44;;;;;;;116.50;39.00;;;8.80;99.90;;;;;;4955267;28;20042;-74
2022/12/22 05:01:30;;;;;;;119.05;40.90;;;8.80;99.90;;;;;;4954666;28;20078;-74
2022/12/22 05:04:16;;;;;;;135.80;42.47;;;8.80;99.90;;;;;;4947888;28;20061;-74
2022/12/22 05:07:03;;;;;;;177.50;44.35;;;8.80;99.90;;;;;;4952122;28;20490;-74
2022/12/22 05:09:49;;;;;;;197.30;46.40;;;8.80;99.90;;;;;;4953835;28;20086;-75
2022/12/22 05:15:39;;;;;;;145.45;41.60;;;8.80;99.90;;;;;;4977527;28;20041;-75
2022/12/22 05:18:25;;;;;;;118.10;38.25;;;8.80;99.90;;;;;;4952729;28;20094;-74
2022/12/22 05:21:12;;;;;;;172.90;39.90;;;8.70;99.90;;;;;;4948503;28;20059;-75
2022/12/22 05:23:58;;;;;;;107.18;35.92;;;8.80;99.90;;;;;;4958465;28;20406;-75
2022/12/22 05:26:44;;;;;;;109.60;36.35;;;8.80;99.90;;;;;;4954651;28;20390;-75
2022/12/22 05:29:30;;;;;;;177.73;41.92;;;8.70;99.90;;;;;;4953823;28;20054;-75
2022/12/22 05:32:15;;;;;;;105.90;35.92;;;8.80;99.90;;;;;;4951675;28;20400;-75
2022/12/22 05:35:03;;;;;;;85.00;35.17;;;8.70;99.90;;;;;;4947159;28;20110;-74
2022/12/22 05:37:49;;;;;;;125.40;38.30;;;8.70;99.90;;;;;;4955224;28;20054;-74
2022/12/22 05:40:34;;;;;;;106.90;37.10;;;8.70;99.90;;;;;;4945449;28;20051;-74
2022/12/22 05:43:21;;;;;;;121.35;36.72;;;8.70;99.90;;;;;;4956476;28;20498;-75
2022/12/22 05:46:09;;;;;;;102.72;36.55;;;8.70;99.90;;;;;;4949739;28;20090;-74
2022/12/22 05:48:55;;;;;;;95.55;34.47;;;8.80;99.90;;;;;;4957614;28;20412;-74
2022/12/22 05:51:40;;;;;;;90.03;33.50;;;8.80;99.90;;;;;;4944334;29;20134;-75
2022/12/22 05:54:26;;;;;;;127.13;38.00;;;8.80;99.90;;;;;;4956513;28;20045;-74
2022/12/22 05:57:12;;;;;;;110.78;38.50;;;8.90;99.90;;;;;;4949125;28;20047;-74
2022/12/22 05:59:58;;;;;;;108.35;37.42;;;8.80;99.90;;;;;;4957964;28;20095;-74
2022/12/22 06:02:44;;;;;;;140.85;39.08;;;8.80;99.90;;;;;;4955378;28;20056;-74
2022/12/22 06:05:31;;;;;;;136.32;39.53;;;8.80;99.90;;;;;;4959138;28;20042;-73
2022/12/22 06:08:16;;;;;;;143.25;39.60;;;8.80;99.90;;;;;;4968482;28;20509;-74
2022/12/22 06:11:02;;;;;;;148.60;40.13;;;8.80;99.90;;;;;;4952806;28;20133;-73
2022/12/22 06:13:48;;;;;;;145.13;39.90;;;8.80;99.90;;;;;;4953075;28;20058;-73
2022/12/22 06:16:34;;;;;;;188.45;59.10;;;8.80;99.90;;;;;;4974265;28;20046;-73
2022/12/22 06:19:20;;;;;;;170.68;40.97;;;8.90;99.90;;;;;;4958339;28;20081;-72
2022/12/22 06:22:06;;;;;;;165.20;39.65;;;8.80;99.90;;;;;;4959297;28;20047;-74
2022/12/22 06:24:52;;;;;;;190.52;46.08;;;8.90;99.90;;;;;;4953430;28;20451;-73
2022/12/22 06:27:38;;;;;;;158.80;41.70;;;8.90;99.90;;;;;;4948435;28;20051;-73
2022/12/22 06:30:24;;;;;;;181.30;40.92;;;8.90;99.90;;;;;;4975040;28;20058;-73
2022/12/22 06:33:09;;;;;;;205.70;42.83;;;8.90;99.90;;;;;;4950431;28;20093;-74
2022/12/22 06:35:55;;;;;;;161.35;39.15;;;8.90;99.90;;;;;;4968384;28;20125;-73
2022/12/22 06:38:41;;;;;;;160.63;40.28;;;8.90;99.90;;;;;;4958574;28;20406;-73
2022/12/22 06:44:31;;;;;;;167.45;42.35;;;8.70;99.90;;;;;;4961636;28;20047;-73
2022/12/22 06:47:17;;;;;;;176.35;45.10;;;8.60;99.90;;;;;;4980011;28;20097;-73
2022/12/22 06:50:04;;;;;;;168.20;43.13;;;8.60;99.90;;;;;;4968856;28;20524;-73
2022/12/22 06:52:50;;;;;;;202.73;41.85;;;8.60;99.90;;;;;;4949561;28;20085;-73
2022/12/22 06:55:36;;;;;;;207.20;42.55;;;8.50;99.90;;;;;;4951402;28;20133;-74
2022/12/22 06:58:22;;;;;;;171.48;40.30;;;8.50;99.90;;;;;;4936268;28;20054;-72
2022/12/22 07:01:08;;;;;;;186.07;39.08;;;8.60;99.90;;;;;;4970940;28;20498;-74
2022/12/22 07:03:54;;;;;;;204.52;41.22;;;8.40;99.90;;;;;;4958365;28;20043;-74
2022/12/22 07:06:40;;;;;;;141.48;38.20;;;8.40;99.90;;;;;;4952984;28;20050;-73
2022/12/22 07:09:26;;;;;;;157.73;35.60;;;8.30;99.90;;;;;;4966993;28;20043;-74
2022/12/22 07:12:12;;;;;;;204.63;36.80;;;8.30;99.90;;;;;;4951382;28;20050;-73
2022/12/22 07:14:58;;;;;;;260.60;35.28;;;8.10;99.90;;;;;;4977163;28;20053;-74
2022/12/22 07:17:44;;;;;;;643.80;38.17;;;8.00;99.90;;;;;;4953994;28;20066;-74
2022/12/22 07:20:30;;;;;;;837.28;33.03;;;7.80;99.90;;;;;;4966515;28;20046;-73
2022/12/22 07:23:16;;;;;;;826.30;27.40;;;7.70;99.90;;;;;;4955112;28;20051;-73
2022/12/22 07:26:03;;;;;;;664.60;24.13;;;7.60;99.90;;;;;;4945229;28;20039;-73
2022/12/22 07:28:49;;;;;;;653.95;27.42;;;7.40;99.90;;;;;;4939625;28;20058;-73
2022/12/22 07:31:35;;;;;;;682.97;32.47;;;7.30;99.90;;;;;;4947822;28;20054;-73
2022/12/22 07:34:21;;;;;;;564.58;26.63;;;7.20;99.90;;;;;;4952974;28;20054;-73
2022/12/22 07:37:07;;;;;;;556.88;26.25;;;7.00;99.90;;;;;;4952232;28;20046;-73
2022/12/22 07:39:53;;;;;;;203.38;35.75;;;7.00;99.90;;;;;;4952065;28;20134;-73
2022/12/22 07:42:44;;;;;;;189.43;35.70;;;7.00;99.90;;;;;;4945432;28;20087;-73
2022/12/22 07:45:32;;;;;;;217.50;39.55;;;7.00;99.90;;;;;;4941111;28;20138;-73
2022/12/22 07:51:23;;;;;;;441.95;42.38;;;7.20;99.90;;;;;;4958324;28;20382;-75
2022/12/22 07:54:12;;;;;;;807.05;50.92;;;7.20;99.90;;;;;;4952207;28;20047;-73
2022/12/22 07:56:58;;;;;;;591.03;41.53;;;7.20;99.90;;;;;;4950837;28;20097;-74
2022/12/22 07:59:44;;;;;;;681.13;42.72;;;7.30;99.90;;;;;;4940908;29;20530;-74
2022/12/22 08:02:30;;;;;;;695.58;43.70;;;7.30;99.90;;;;;;4950267;28;20051;-74
2022/12/22 08:05:16;;;;;;;479.33;42.95;;;7.30;99.90;;;;;;4944962;28;20042;-74
2022/12/22 08:08:02;;;;;;;287.02;39.25;;;7.30;99.90;;;;;;4968783;28;20105;-74
2022/12/22 08:10:48;;;;;;;176.90;34.88;;;7.30;99.90;;;;;;4965966;28;20039;-74
2022/12/22 08:13:34;;;;;;;169.38;33.55;;;7.30;99.90;;;;;;4968703;28;20046;-74
2022/12/22 08:16:21;;;;;;;223.45;35.40;;;7.40;99.90;;;;;;4950961;28;20054;-74
2022/12/22 08:19:07;;;;;;;255.48;33.90;;;7.40;99.90;;;;;;4948318;28;20493;-72
2022/12/22 08:21:53;;;;;;;218.90;34.38;;;7.40;99.90;;;;;;4971063;28;20078;-72
2022/12/22 08:24:38;;;;;;;187.90;34.15;;;7.40;99.90;;;;;;4948135;28;20409;-71
2022/12/22 08:27:39;;;;;;;188.43;34.08;;;7.40;99.90;;;;;;4952749;28;20109;-72
2022/12/22 08:30:25;;;;;;;187.05;33.22;;;7.40;99.90;;;;;;4949316;28;20083;-72
2022/12/22 08:33:11;;;;;;;231.20;34.67;;;7.50;99.90;;;;;;4953052;28;20088;-72
2022/12/22 08:35:58;;;;;;;209.40;32.95;;;7.40;99.90;;;;;;4967125;28;20129;-72
2022/12/22 08:38:44;;;;;;;276.30;33.67;;;7.40;99.90;;;;;;4944597;28;20057;-72
2022/12/22 08:41:50;;;;;;;304.90;33.95;;;7.30;99.90;;;;;;4953808;28;20054;-72
2022/12/22 08:44:37;;;;;;;312.23;32.53;;;7.30;99.90;;;;;;4965893;28;20114;-72
2022/12/22 08:47:23;;;;;;;212.27;29.75;;;7.30;99.90;;;;;;4968783;28;20114;-75
2022/12/22 08:50:10;;;;;;;190.68;28.52;;;7.30;99.90;;;;;;4971788;28;20079;-75
2022/12/22 08:53:03;;;;;;;138.65;26.00;;;7.30;99.90;;;;;;4951767;28;20053;-74
2022/12/22 08:55:53;;;;;;;135.60;25.45;;;7.20;99.90;;;;;;4954450;28;20055;-74
2022/12/22 08:58:39;;;;;;;143.98;24.15;;;7.20;99.90;;;;;;4957649;28;20042;-74
2022/12/22 09:01:25;;;;;;;243.02;28.50;;;7.10;99.90;;;;;;4962619;28;20070;-74
2022/12/22 09:04:14;;;;;;;235.10;26.25;;;7.10;99.90;;;;;;4955051;28;20512;-74
2022/12/22 09:07:01;;;;;;;132.57;22.60;;;7.10;99.90;;;;;;4955796;28;20034;-74
2022/12/22 09:09:47;;;;;;;166.43;24.40;;;7.10;99.90;;;;;;4969176;28;20051;-74
2022/12/22 09:12:33;;;;;;;159.68;21.52;;;7.10;99.90;;;;;;4957646;28;20043;-74
2022/12/22 09:15:19;;;;;;;199.80;24.45;;;7.10;99.90;;;;;;4952773;28;20047;-74
2022/12/22 09:18:05;;;;;;;250.95;27.60;;;7.10;99.90;;;;;;4949984;28;20071;-74
2022/12/22 09:20:55;;;;;;;209.27;28.90;;;7.10;99.90;;;;;;4954061;28;20085;-74
2022/12/22 09:23:41;;;;;;;204.48;25.25;;;7.10;99.90;;;;;;4952856;28;20051;-74
2022/12/22 09:26:27;;;;;;;236.77;27.92;;;7.10;99.90;;;;;;4952138;28;20379;-74
2022/12/22 09:29:14;;;;;;;271.38;27.73;;;7.10;99.90;;;;;;4970336;28;20051;-74
2022/12/22 09:32:00;;;;;;;204.82;26.38;;;7.10;99.90;;;;;;4968140;28;20532;-74
2022/12/22 09:34:47;;;;;;;216.00;23.42;;;7.10;99.90;;;;;;4959690;28;20050;-73
2022/12/22 09:37:33;;;;;;;193.73;24.80;;;7.10;99.90;;;;;;4969097;28;20417;-74
2022/12/22 09:40:21;;;;;;;151.70;21.98;;;7.10;99.90;;;;;;4971359;28;20568;-75
2022/12/22 09:43:13;;;;;;;115.15;22.13;;;7.10;99.90;;;;;;4949664;28;20059;-75
2022/12/22 09:45:59;;;;;;;162.70;23.07;;;7.20;99.90;;;;;;4955435;28;20173;-75
2022/12/22 09:48:46;;;;;;;97.13;21.67;;;7.20;99.90;;;;;;4971358;28;20055;-75
2022/12/22 09:51:40;;;;;;;117.32;21.92;;;7.10;99.90;;;;;;4953634;28;20058;-76
2022/12/22 09:54:28;;;;;;;134.40;23.67;;;7.10;99.90;;;;;;4971164;28;20043;-75
2022/12/22 09:57:13;;;;;;;110.00;23.60;;;7.10;99.90;;;;;;4952783;28;20051;-75
2022/12/22 10:00:14;;;;;;;118.05;26.73;;;7.20;99.90;;;;;;4954150;28;20137;-75
2022/12/22 10:03:02;;;;;;;105.35;26.40;;;7.10;99.90;;;;;;4956881;28;20046;-74
2022/12/22 10:05:57;;;;;;;104.78;24.10;;;7.20;99.90;;;;;;4970233;28;20126;-73
2022/12/22 10:08:43;;;;;;;75.68;19.73;;;7.20;99.90;;;;;;4963491;28;20043;-75
2022/12/22 10:11:29;;;;;;;82.60;21.30;;;7.10;99.90;;;;;;4969794;28;20054;-75
2022/12/22 10:14:15;;;;;;;82.40;21.13;;;7.10;99.90;;;;;;4973269;28;20062;-75
2022/12/22 10:17:20;;;;;;;73.82;21.20;;;7.10;99.90;;;;;;4970467;28;20043;-74
2022/12/22 10:20:32;;;;;;;96.43;21.20;;;7.10;99.90;;;;;;4955213;28;20053;-75
2022/12/22 10:23:26;;;;;;;61.08;17.80;;;7.20;99.90;;;;;;4955246;28;20039;-75
2022/12/22 10:26:16;;;;;;;46.08;15.15;;;7.10;99.90;;;;;;4951288;28;20043;-75
2022/12/22 10:29:06;;;;;;;63.80;18.75;;;6.90;99.90;;;;;;4951039;28;20039;-75
2022/12/22 10:32:13;;;;;;;57.65;17.13;;;7.00;99.90;;;;;;4952914;28;20587;-75
2022/12/22 10:35:05;;;;;;;70.47;18.25;;;7.00;99.90;;;;;;4941715;28;20053;-75
2022/12/22 10:37:51;;;;;;;78.35;19.23;;;7.00;99.90;;;;;;4954921;28;20050;-75
2022/12/22 10:40:42;;;;;;;58.17;17.52;;;7.00;99.90;;;;;;4952674;28;20050;-75
2022/12/22 10:43:31;;;;;;;58.33;18.10;;;7.10;99.90;;;;;;4952145;28;20070;-75
2022/12/22 10:46:27;;;;;;;56.50;17.95;;;7.20;99.90;;;;;;4952534;28;20043;-75
2022/12/22 10:49:24;;;;;;;50.63;17.98;;;7.20;99.90;;;;;;4941745;28;20125;-75
2022/12/22 10:52:15;;;;;;;51.75;17.40;;;7.30;99.90;;;;;;4952054;28;20057;-73
2022/12/22 10:55:17;;;;;;;53.38;17.67;;;7.40;99.90;;;;;;4966423;28;20154;-76
2022/12/22 10:58:09;;;;;;;40.15;15.43;;;7.60;99.90;;;;;;4952831;28;20158;-75
2022/12/22 11:01:03;;;;;;;54.42;16.13;;;7.50;99.90;;;;;;4948509;28;20074;-76
2022/12/22 11:03:49;;;;;;;41.90;16.17;;;7.50;99.90;;;;;;4953301;28;20047;-75
2022/12/22 11:06:35;;;;;;;35.30;13.65;;;7.60;99.90;;;;;;4954505;28;20094;-75
2022/12/22 11:09:21;;;;;;;34.05;14.32;;;7.50;99.90;;;;;;4951551;28;20054;-75
2022/12/22 11:12:28;;;;;;;28.65;14.48;;;7.50;99.90;;;;;;4968866;28;20038;-75
2022/12/22 11:15:38;;;;;;;31.65;13.73;;;7.50;99.90;;;;;;4951842;28;20065;-74
2022/12/22 11:18:34;;;;;;;27.00;13.63;;;7.60;99.90;;;;;;4949618;28;20073;-75
2022/12/22 11:21:33;;;;;;;33.05;12.82;;;7.60;99.90;;;;;;4952723;28;20552;-75
2022/12/22 11:24:38;;;;;;;35.17;14.25;;;7.60;99.90;;;;;;4951458;28;20109;-75
2022/12/22 11:27:24;;;;;;;30.05;13.23;;;7.60;99.90;;;;;;4952155;28;20066;-75
2022/12/22 11:30:26;;;;;;;34.38;14.55;;;7.60;99.90;;;;;;4939086;28;20098;-75
2022/12/22 11:33:33;;;;;;;34.88;14.55;;;7.60;99.90;;;;;;4969739;28;20051;-75
2022/12/22 11:36:44;;;;;;;34.65;14.65;;;7.70;99.90;;;;;;4942718;28;20101;-74
2022/12/22 11:39:41;;;;;;;28.95;13.40;;;7.70;99.90;;;;;;4968452;28;20168;-74
2022/12/22 11:42:51;;;;;;;28.48;13.63;;;7.70;99.90;;;;;;4952692;28;20051;-75
2022/12/22 11:46:17;;;;;;;35.38;14.20;;;7.80;99.90;;;;;;4964056;28;20054;-74
2022/12/22 11:49:08;;;;;;;31.33;12.77;;;7.90;99.90;;;;;;4954916;28;20527;-75
2022/12/22 11:52:27;;;;;;;29.05;13.07;;;8.00;99.90;;;;;;4964380;28;20046;-75
2022/12/22 11:55:34;;;;;;;30.35;13.23;;;8.00;99.90;;;;;;4951957;28;20137;-76
2022/12/22 11:58:42;;;;;;;28.73;13.18;;;8.10;99.90;;;;;;4952388;28;20047;-75
2022/12/22 12:01:31;;;;;;;28.63;12.63;;;8.30;99.90;;;;;;4943987;29;20067;-76
2022/12/22 12:04:23;;;;;;;26.92;12.13;;;8.40;99.90;;;;;;4963999;28;20047;-76
2022/12/22 12:07:30;;;;;;;27.02;11.77;;;8.50;99.90;;;;;;4952454;28;20050;-76
2022/12/22 12:10:23;;;;;;;26.35;11.63;;;8.60;99.90;;;;;;4949267;28;20197;-75
2022/12/22 12:13:32;;;;;;;23.33;11.32;;;8.70;99.90;;;;;;4952874;28;20104;-75
2022/12/22 12:16:39;;;;;;;24.60;9.50;;;8.90;99.90;;;;;;4943463;28;20109;-75
2022/12/22 12:19:42;;;;;;;19.70;9.60;;;9.00;99.90;;;;;;4949201;28;20051;-75
2022/12/22 12:22:39;;;;;;;22.83;8.95;;;9.10;99.90;;;;;;4953232;28;20524;-75
2022/12/22 12:25:41;;;;;;;19.75;8.80;;;9.30;99.90;;;;;;4945685;28;20194;-76
2022/12/22 12:28:50;;;;;;;22.63;9.13;;;9.30;99.90;;;;;;4953479;28;20043;-75
2022/12/22 12:31:42;;;;;;;19.30;8.25;;;9.40;99.90;;;;;;4930179;28;20130;-76
2022/12/22 12:34:32;;;;;;;19.47;8.43;;;9.40;99.90;;;;;;4959365;28;20039;-76
2022/12/22 12:37:37;;;;;;;22.30;8.82;;;9.50;99.90;;;;;;4949459;28;20659;-76
2022/12/22 12:40:46;;;;;;;25.05;9.20;;;9.60;99.90;;;;;;4946260;28;20090;-76
2022/12/22 12:43:33;;;;;;;22.17;8.90;;;9.70;99.90;;;;;;4936245;29;20087;-76
2022/12/22 12:46:50;;;;;;;21.23;9.20;;;9.60;99.90;;;;;;4953655;28;20055;-75
2022/12/22 12:49:36;;;;;;;21.10;8.55;;;9.60;99.90;;;;;;4971380;28;20074;-75
2022/12/22 12:52:42;;;;;;;19.35;9.52;;;9.70;99.90;;;;;;4965018;28;20055;-76
2022/12/22 12:55:37;;;;;;;21.63;9.90;;;9.60;99.90;;;;;;4951936;28;20078;-75
2022/12/22 12:58:38;;;;;;;19.75;8.40;;;9.60;99.90;;;;;;4940877;28;20596;-76
2022/12/22 13:01:27;;;;;;;23.33;9.07;;;9.70;99.90;;;;;;4953816;28;20086;-76
2022/12/22 13:04:51;;;;;;;22.23;9.45;;;9.80;99.90;;;;;;4946548;28;20043;-76
2022/12/22 13:08:15;;;;;;;21.13;8.98;;;9.70;99.90;;;;;;4952528;28;20034;-76
2022/12/22 13:11:07;;;;;;;19.85;8.52;;;9.70;99.90;;;;;;4945111;28;20461;-76
2022/12/22 13:13:53;;;;;;;17.17;8.25;;;9.70;99.90;;;;;;4949400;28;20097;-76
2022/12/22 13:16:39;;;;;;;20.92;8.80;;;9.80;99.90;;;;;;4960585;28;20051;-77
2022/12/22 13:19:26;;;;;;;17.15;8.15;;;10.00;99.90;;;;;;4945135;29;20086;-76
2022/12/22 13:22:12;;;;;;;16.95;7.38;;;10.40;99.90;;;;;;4952574;28;20413;-76
2022/12/22 13:25:00;;;;;;;15.57;6.82;;;10.30;99.90;;;;;;4968807;28;20071;-76
2022/12/22 13:27:48;;;;;;;18.33;7.05;;;10.50;99.90;;;;;;4952458;28;20047;-76
2022/12/22 13:30:34;;;;;;;13.60;6.57;;;10.60;99.90;;;;;;4952438;28;20497;-76
2022/12/22 13:33:25;;;;;;;14.57;6.47;;;10.60;99.90;;;;;;4970840;28;20105;-77
2022/12/22 13:36:22;;;;;;;11.90;5.78;;;10.50;99.90;;;;;;4957473;28;20110;-76
2022/12/22 13:39:14;;;;;;;12.63;6.07;;;10.60;99.90;;;;;;4942826;28;20043;-76
2022/12/22 13:42:00;;;;;;;11.60;5.38;;;10.80;99.90;;;;;;4956782;28;20046;-76
2022/12/22 13:44:46;;;;;;;13.85;5.82;;;11.00;99.90;;;;;;4940460;28;20046;-76
2022/12/22 13:47:32;;;;;;;12.88;5.90;;;10.40;99.90;;;;;;4943632;29;20047;-76
2022/12/22 13:50:25;;;;;;;18.13;6.70;;;10.10;99.90;;;;;;4941420;28;20065;-76
2022/12/22 13:53:36;;;;;;;12.20;6.53;;;9.80;99.90;;;;;;4972151;28;20528;-76
2022/12/22 13:56:26;;;;;;;16.85;6.05;;;9.60;99.90;;;;;;4943556;28;20386;-76
2022/12/22 13:59:48;;;;;;;12.75;5.90;;;9.50;99.90;;;;;;4973927;28;20053;-76
2022/12/22 14:02:34;;;;;;;13.43;6.05;;;9.50;99.90;;;;;;4956184;28;20054;-76
2022/12/22 14:05:20;;;;;;;13.63;6.22;;;9.50;99.90;;;;;;4970519;28;20517;-76
2022/12/22 14:08:06;;;;;;;14.65;6.47;;;9.50;99.90;;;;;;4949046;28;20069;-76
2022/12/22 14:10:54;;;;;;;18.20;6.25;;;9.30;99.90;;;;;;4950558;28;20054;-76
2022/12/22 14:13:41;;;;;;;15.32;5.93;;;9.30;99.90;;;;;;4971893;28;20046;-76
2022/12/22 14:16:27;;;;;;;13.45;5.78;;;9.10;99.90;;;;;;4952274;28;20569;-76
2022/12/22 14:19:16;;;;;;;15.15;6.10;;;9.10;99.90;;;;;;4942966;28;20047;-75
2022/12/22 14:22:15;;;;;;;13.65;6.18;;;9.10;99.90;;;;;;4960834;28;20517;-76
2022/12/22 14:25:14;;;;;;;15.77;5.90;;;9.00;99.90;;;;;;4949981;28;20458;-75
2022/12/22 14:28:01;;;;;;;12.25;5.47;;;9.00;99.90;;;;;;4970941;28;20046;-76
2022/12/22 14:30:51;;;;;;;14.50;5.47;;;9.00;99.90;;;;;;4957886;28;20113;-75
2022/12/22 14:33:38;;;;;;;15.05;6.00;;;9.10;99.90;;;;;;4971909;28;20051;-75
2022/12/22 14:36:35;;;;;;;15.23;5.93;;;9.10;99.90;;;;;;4955789;28;20121;-75
2022/12/22 14:39:24;;;;;;;12.90;5.20;;;9.10;99.90;;;;;;4971366;28;20500;-74
2022/12/22 14:42:12;;;;;;;13.73;5.30;;;9.00;99.90;;;;;;4958461;28;20529;-79
2022/12/22 14:44:59;;;;;;;14.05;5.55;;;9.10;99.90;;;;;;4958403;28;20062;-79
2022/12/22 14:47:45;;;;;;;16.23;5.55;;;9.00;99.90;;;;;;4963862;28;20443;-77
2022/12/22 14:50:30;;;;;;;17.05;5.68;;;9.00;99.90;;;;;;4947764;28;20054;-76
2022/12/22 14:53:45;;;;;;;10.75;5.20;;;9.00;99.90;;;;;;4988090;28;20042;-78
2022/12/22 14:56:31;;;;;;;14.93;5.85;;;9.00;99.90;;;;;;4972501;28;20050;-78
2022/12/22 14:59:26;;;;;;;12.25;5.50;;;8.90;99.90;;;;;;4948340;28;20105;-78
2022/12/22 15:02:25;;;;;;;14.20;6.10;;;8.90;99.90;;;;;;4960590;28;20051;-77
2022/12/22 15:05:23;;;;;;;14.00;5.82;;;8.90;99.90;;;;;;4955668;28;20054;-77
2022/12/22 15:08:39;;;;;;;12.63;5.30;;;8.80;99.90;;;;;;4956078;28;20053;-77
2022/12/22 15:11:25;;;;;;;11.88;6.13;;;8.80;99.90;;;;;;4938947;28;20069;-77
2022/12/22 15:14:15;;;;;;;12.50;6.00;;;8.70;99.90;;;;;;4954398;28;20062;-77
2022/12/22 15:17:02;;;;;;;16.15;6.10;;;8.70;99.90;;;;;;4954244;28;20609;-77
2022/12/22 15:19:50;;;;;;;11.15;6.20;;;8.60;99.90;;;;;;4956719;28;20109;-77
2022/12/22 15:22:36;;;;;;;13.07;6.22;;;8.50;99.90;;;;;;4944191;28;20055;-77
2022/12/22 15:25:23;;;;;;;15.55;6.28;;;8.50;99.90;;;;;;4954063;28;20561;-77
2022/12/22 15:28:09;;;;;;;13.30;6.05;;;8.50;99.90;;;;;;4970048;28;20051;-77
2022/12/22 15:30:55;;;;;;;17.00;6.55;;;8.50;99.90;;;;;;4954587;28;20485;-77
2022/12/22 15:33:42;;;;;;;11.57;6.47;;;8.40;99.90;;;;;;4960075;28;20417;-77
2022/12/22 15:36:28;;;;;;;16.40;7.85;;;8.40;99.90;;;;;;4970400;28;20043;-77
2022/12/22 15:39:16;;;;;;;13.93;6.97;;;8.40;99.90;;;;;;4956807;28;20125;-77
2022/12/22 15:42:02;;;;;;;17.25;7.05;;;8.50;99.90;;;;;;4946207;28;20072;-78
2022/12/22 15:44:48;;;;;;;15.77;7.10;;;8.50;99.90;;;;;;4951839;28;20078;-77
2022/12/22 15:47:33;;;;;;;14.60;8.10;;;8.50;99.90;;;;;;4953949;28;20046;-77
2022/12/22 15:50:24;;;;;;;15.63;9.52;;;8.40;99.90;;;;;;4970848;28;20505;-77
2022/12/22 15:53:15;;;;;;;16.77;10.25;;;8.40;99.90;;;;;;4967965;28;20050;-79
2022/12/22 15:56:02;;;;;;;21.40;11.38;;;8.40;99.90;;;;;;4952378;28;20605;-77
2022/12/22 15:58:48;;;;;;;22.00;12.55;;;8.50;99.90;;;;;;4954078;28;20125;-79
2022/12/22 16:01:34;;;;;;;18.80;13.00;;;8.50;99.90;;;;;;4938412;28;20133;-79
2022/12/22 16:04:21;;;;;;;25.10;13.55;;;8.50;99.90;;;;;;4956119;28;20049;-78
2022/12/22 16:07:11;;;;;;;24.40;14.20;;;8.50;99.90;;;;;;4936532;28;20043;-79
2022/12/22 16:09:58;;;;;;;21.88;14.45;;;8.50;99.90;;;;;;4951962;28;20184;-79
2022/12/22 16:12:52;;;;;;;24.48;15.10;;;8.50;99.90;;;;;;4941696;28;20070;-78
2022/12/22 16:15:38;;;;;;;23.50;15.27;;;8.40;99.90;;;;;;4958539;28;20445;-79
2022/12/22 16:18:24;;;;;;;23.80;15.18;;;8.40;99.90;;;;;;4940344;28;20196;-79
2022/12/22 16:21:15;;;;;;;26.35;15.68;;;8.40;99.90;;;;;;4957318;28;20051;-79
2022/12/22 16:24:02;;;;;;;25.85;15.30;;;8.40;99.90;;;;;;4941515;28;20800;-79
2022/12/22 16:27:30;;;;;;;22.33;15.70;;;8.40;99.90;;;;;;4969958;28;20039;-79
2022/12/22 16:30:38;;;;;;;22.45;15.02;;;8.40;99.90;;;;;;4950714;28;20043;-78
2022/12/22 16:33:24;;;;;;;22.23;14.95;;;8.40;99.90;;;;;;4951521;28;20042;-79
2022/12/22 16:36:12;;;;;;;23.40;15.27;;;8.30;99.90;;;;;;4971961;28;20047;-78
2022/12/22 16:38:58;;;;;;;25.90;15.55;;;8.30;99.90;;;;;;4937870;29;20051;-79
2022/12/22 16:41:44;;;;;;;25.00;16.02;;;8.30;99.90;;;;;;4951819;28;20134;-79
2022/12/22 16:44:30;;;;;;;22.20;15.60;;;8.30;99.90;;;;;;4941255;28;20520;-77
2022/12/22 16:47:24;;;;;;;24.83;15.82;;;8.30;99.90;;;;;;4939378;28;20127;-79
2022/12/22 16:50:19;;;;;;;27.15;16.27;;;8.20;99.90;;;;;;4963442;28;20521;-79
2022/12/22 16:53:05;;;;;;;26.67;16.83;;;8.10;99.90;;;;;;4959111;28;20517;-76
2022/12/22 16:55:51;;;;;;;27.17;17.33;;;8.10;99.90;;;;;;4950134;28;20045;-76
2022/12/22 16:58:37;;;;;;;26.40;17.00;;;8.00;99.90;;;;;;4953108;28;20423;-76
2022/12/22 17:01:47;;;;;;;28.40;17.52;;;8.00;99.90;;;;;;4954359;28;20047;-76
2022/12/22 17:04:33;;;;;;;29.08;19.15;;;7.90;99.90;;;;;;4970493;28;20050;-76
2022/12/22 17:07:20;;;;;;;30.73;19.42;;;7.90;99.90;;;;;;4954939;28;20069;-76
2022/12/22 17:10:13;;;;;;;29.48;18.45;;;7.90;99.90;;;;;;4951477;28;22191;-75
2022/12/22 17:13:00;;;;;;;32.65;20.10;;;7.90;99.90;;;;;;4942312;28;20506;-75
2022/12/22 17:18:52;;;;;;;35.75;20.40;;;7.80;99.90;;;;;;2297142;26;20114;-76
2022/12/22 17:21:46;;;;;;;37.17;21.02;;;7.80;99.90;;;;;;4958072;28;20088;-76
2022/12/22 17:24:32;;;;;;;32.95;20.67;;;7.70;99.90;;;;;;4931538;28;20046;-76
2022/12/22 17:27:32;;;;;;;38.45;21.70;;;7.80;99.90;;;;;;4965998;28;20578;-75
2022/12/22 17:30:21;;;;;;;36.58;21.77;;;7.80;99.90;;;;;;4955455;28;20035;-76
2022/12/22 17:33:15;;;;;;;35.60;22.02;;;7.80;99.90;;;;;;4955441;28;20145;-76
2022/12/22 17:36:02;;;;;;;35.88;21.50;;;7.80;99.90;;;;;;4953853;28;20470;-75
2022/12/22 17:38:47;;;;;;;35.25;22.17;;;7.80;99.90;;;;;;4968830;28;20051;-75
2022/12/22 17:41:33;;;;;;;37.03;22.83;;;7.70;99.90;;;;;;4952827;28;20058;-75
2022/12/22 17:44:21;;;;;;;36.00;21.77;;;7.70;99.90;;;;;;4942187;28;20073;-76
2022/12/22 17:47:14;;;;;;;35.58;21.73;;;7.70;99.90;;;;;;4954135;28;20053;-75
2022/12/22 17:50:00;;;;;;;37.53;22.92;;;7.60;99.90;;;;;;4939531;28;20051;-76
2022/12/22 17:52:46;;;;;;;36.65;22.67;;;7.60;99.90;;;;;;4951671;28;20129;-76
2022/12/22 17:55:32;;;;;;;37.65;23.35;;;7.50;99.90;;;;;;4954470;28;20054;-76
2022/12/22 17:58:18;;;;;;;41.70;23.98;;;7.50;99.90;;;;;;4943581;28;20050;-76
2022/12/22 18:01:04;;;;;;;37.92;23.75;;;7.50;99.90;;;;;;4954193;28;20143;-75
2022/12/22 18:03:51;;;;;;;43.03;25.33;;;7.50;99.90;;;;;;4951023;28;20053;-76
2022/12/22 18:06:38;;;;;;;40.85;24.55;;;7.50;99.90;;;;;;4949142;28;20053;-76
2022/12/22 18:09:25;;;;;;;41.20;24.40;;;7.50;99.90;;;;;;4959092;28;20085;-76
2022/12/22 18:12:23;;;;;;;43.47;25.27;;;7.50;99.90;;;;;;4960157;28;20058;-76
2022/12/22 18:15:19;;;;;;;42.42;25.80;;;7.40;99.90;;;;;;4942314;28;20329;-76
2022/12/22 18:18:14;;;;;;;41.40;25.60;;;7.40;99.90;;;;;;4953064;28;20057;-76
2022/12/22 18:21:00;;;;;;;44.40;25.98;;;7.40;99.90;;;;;;4955627;28;20053;-76